sensor_id;sensor_type;location;lat;lon;timestamp;pressure;altitude;pressure_sealevel;temperature;humidity
17260;BME280;8746;49.230;9.220;2022-09-29T00:00:49;98495.97;;;7.16;98.19
17260;BME280;8746;49.230;9.220;2022-09-29T00:03:14;98491.41;;;7.20;98.12
17260;BME280;8746;49.230;9.220;2022-09-29T00:05:51;98497.56;;;7.19;98.75
17260;BME280;8746;49.230;9.220;2022-09-29T00:08:18;98503.81;;;7.16;98.45
17260;BME280;8746;49.230;9.220;2022-09-29T00:10:44;98494.16;;;7.17;98.10
17260;BME280;8746;49.230;9.220;2022-09-29T00:13:10;98498.56;;;7.16;98.13
17260;BME280;8746;49.230;9.220;2022-09-29T00:15:35;98498.66;;;7.15;98.28
17260;BME280;8746;49.230;9.220;2022-09-29T00:18:01;98498.88;;;7.10;98.11
17260;BME280;8746;49.230;9.220;2022-09-29T00:20:26;98497.09;;;7.11;98.35
17260;BME280;8746;49.230;9.220;2022-09-29T00:22:51;98499.28;;;7.02;98.06
17260;BME280;8746;49.230;9.220;2022-09-29T00:25:18;98498.78;;;6.94;97.28
17260;BME280;8746;49.230;9.220;2022-09-29T00:27:43;98501.72;;;6.88;97.98
17260;BME280;8746;49.230;9.220;2022-09-29T00:30:09;98498.38;;;6.84;98.80
17260;BME280;8746;49.230;9.220;2022-09-29T00:32:35;98496.84;;;6.80;99.57
17260;BME280;8746;49.230;9.220;2022-09-29T00:35:00;98502.09;;;6.80;100.00
17260;BME280;8746;49.230;9.220;2022-09-29T00:37:26;98500.84;;;6.87;99.37
17260;BME280;8746;49.230;9.220;2022-09-29T00:39:51;98497.16;;;6.92;99.63
17260;BME280;8746;49.230;9.220;2022-09-29T00:42:18;98495.59;;;6.87;98.96
17260;BME280;8746;49.230;9.220;2022-09-29T00:45:00;98490.22;;;6.90;99.22
17260;BME280;8746;49.230;9.220;2022-09-29T00:47:27;98493.16;;;6.84;98.55
17260;BME280;8746;49.230;9.220;2022-09-29T00:49:55;98491.75;;;6.77;98.67
17260;BME280;8746;49.230;9.220;2022-09-29T00:52:32;98489.34;;;6.72;98.65
17260;BME280;8746;49.230;9.220;2022-09-29T00:55:15;98485.56;;;6.78;99.28
17260;BME280;8746;49.230;9.220;2022-09-29T00:57:49;98482.78;;;6.81;98.44
17260;BME280;8746;49.230;9.220;2022-09-29T01:00:15;98474.13;;;6.62;98.93
17260;BME280;8746;49.230;9.220;2022-09-29T01:03:05;98480.94;;;6.66;99.79
17260;BME280;8746;49.230;9.220;2022-09-29T01:05:37;98487.88;;;6.67;99.15
17260;BME280;8746;49.230;9.220;2022-09-29T01:08:21;98482.75;;;6.64;99.12
17260;BME280;8746;49.230;9.220;2022-09-29T01:10:50;98478.72;;;6.76;98.98
17260;BME280;8746;49.230;9.220;2022-09-29T01:13:17;98480.56;;;6.73;99.31
17260;BME280;8746;49.230;9.220;2022-09-29T01:15:42;98483.47;;;6.67;99.20
17260;BME280;8746;49.230;9.220;2022-09-29T01:18:08;98477.31;;;6.68;99.27
17260;BME280;8746;49.230;9.220;2022-09-29T01:20:40;98479.22;;;6.65;99.08
17260;BME280;8746;49.230;9.220;2022-09-29T01:36:27;98484.47;;;6.46;98.77
17260;BME280;8746;49.230;9.220;2022-09-29T01:39:14;98483.94;;;6.39;97.84
17260;BME280;8746;49.230;9.220;2022-09-29T01:41:58;98496.22;;;6.37;98.17
17260;BME280;8746;49.230;9.220;2022-09-29T01:44:33;98487.75;;;6.32;96.99
17260;BME280;8746;49.230;9.220;2022-09-29T01:47:08;98489.44;;;6.33;98.33
17260;BME280;8746;49.230;9.220;2022-09-29T01:49:40;98489.44;;;6.33;98.23
17260;BME280;8746;49.230;9.220;2022-09-29T01:52:12;98488.47;;;6.35;98.46
17260;BME280;8746;49.230;9.220;2022-09-29T01:57:28;98491.63;;;6.42;99.21
17260;BME280;8746;49.230;9.220;2022-09-29T02:00:04;98490.91;;;6.38;99.30
17260;BME280;8746;49.230;9.220;2022-09-29T02:05:10;98490.28;;;6.52;99.29
17260;BME280;8746;49.230;9.220;2022-09-29T02:07:41;98492.13;;;6.50;99.48
17260;BME280;8746;49.230;9.220;2022-09-29T02:10:32;98490.09;;;6.57;99.32
17260;BME280;8746;49.230;9.220;2022-09-29T02:13:00;98494.38;;;6.58;99.33
17260;BME280;8746;49.230;9.220;2022-09-29T02:15:30;98493.94;;;6.67;98.88
17260;BME280;8746;49.230;9.220;2022-09-29T02:18:04;98493.16;;;6.65;98.86
17260;BME280;8746;49.230;9.220;2022-09-29T02:20:31;98497.28;;;6.71;98.91
17260;BME280;8746;49.230;9.220;2022-09-29T02:22:57;98497.81;;;6.78;98.40
17260;BME280;8746;49.230;9.220;2022-09-29T02:25:22;98495.91;;;6.81;98.18
17260;BME280;8746;49.230;9.220;2022-09-29T02:27:48;98498.09;;;6.71;97.98
17260;BME280;8746;49.230;9.220;2022-09-29T02:30:15;98503.06;;;6.78;98.00
17260;BME280;8746;49.230;9.220;2022-09-29T02:32:41;98506.63;;;6.77;98.10
17260;BME280;8746;49.230;9.220;2022-09-29T02:35:08;98498.97;;;6.72;98.53
17260;BME280;8746;49.230;9.220;2022-09-29T02:40:31;98506.00;;;6.52;99.22
17260;BME280;8746;49.230;9.220;2022-09-29T02:43:08;98512.78;;;6.56;99.18
17260;BME280;8746;49.230;9.220;2022-09-29T02:48:35;98512.28;;;6.48;99.15
17260;BME280;8746;49.230;9.220;2022-09-29T03:01:50;98509.84;;;6.45;99.44
17260;BME280;8746;49.230;9.220;2022-09-29T03:04:16;98510.81;;;6.43;99.70
17260;BME280;8746;49.230;9.220;2022-09-29T03:06:42;98514.72;;;6.53;99.83
17260;BME280;8746;49.230;9.220;2022-09-29T03:09:07;98503.88;;;6.61;99.27
17260;BME280;8746;49.230;9.220;2022-09-29T03:11:33;98506.50;;;6.61;99.33
17260;BME280;8746;49.230;9.220;2022-09-29T03:13:58;98510.81;;;6.62;99.14
17260;BME280;8746;49.230;9.220;2022-09-29T03:16:24;98506.22;;;6.67;99.05
17260;BME280;8746;49.230;9.220;2022-09-29T03:18:49;98501.31;;;6.78;98.69
17260;BME280;8746;49.230;9.220;2022-09-29T03:21:15;98494.53;;;6.55;98.27
17260;BME280;8746;49.230;9.220;2022-09-29T03:23:40;98499.19;;;6.48;99.06
17260;BME280;8746;49.230;9.220;2022-09-29T03:26:05;98499.19;;;6.48;99.73
17260;BME280;8746;49.230;9.220;2022-09-29T03:28:30;98504.94;;;6.56;98.90
17260;BME280;8746;49.230;9.220;2022-09-29T03:31:03;98502.75;;;6.47;99.08
17260;BME280;8746;49.230;9.220;2022-09-29T03:33:29;98504.69;;;6.44;99.02
17260;BME280;8746;49.230;9.220;2022-09-29T03:35:54;98500.19;;;6.46;99.19
17260;BME280;8746;49.230;9.220;2022-09-29T03:38:20;98504.31;;;6.51;99.19
17260;BME280;8746;49.230;9.220;2022-09-29T03:40:45;98503.81;;;6.43;99.27
17260;BME280;8746;49.230;9.220;2022-09-29T03:43:10;98509.69;;;6.29;99.98
17260;BME280;8746;49.230;9.220;2022-09-29T03:45:36;98499.47;;;6.42;99.92
17260;BME280;8746;49.230;9.220;2022-09-29T03:48:01;98498.72;;;6.40;99.91
17260;BME280;8746;49.230;9.220;2022-09-29T03:50:26;98504.28;;;6.32;100.00
17260;BME280;8746;49.230;9.220;2022-09-29T03:52:52;98501.47;;;6.37;100.00
17260;BME280;8746;49.230;9.220;2022-09-29T03:55:17;98498.78;;;6.38;100.00
17260;BME280;8746;49.230;9.220;2022-09-29T03:57:42;98497.53;;;6.47;100.00
17260;BME280;8746;49.230;9.220;2022-09-29T04:00:08;98496.53;;;6.50;99.63
17260;BME280;8746;49.230;9.220;2022-09-29T04:02:34;98494.44;;;6.56;100.00
17260;BME280;8746;49.230;9.220;2022-09-29T04:05:00;98490.00;;;6.58;99.84
17260;BME280;8746;49.230;9.220;2022-09-29T04:07:25;98493.66;;;6.73;99.20
17260;BME280;8746;49.230;9.220;2022-09-29T04:09:50;98491.84;;;6.56;98.88
17260;BME280;8746;49.230;9.220;2022-09-29T04:12:16;98488.78;;;6.66;99.14
17260;BME280;8746;49.230;9.220;2022-09-29T04:14:41;98489.25;;;6.74;98.86
17260;BME280;8746;49.230;9.220;2022-09-29T04:17:06;98486.97;;;6.85;98.17
17260;BME280;8746;49.230;9.220;2022-09-29T04:19:32;98489.84;;;6.62;98.61
17260;BME280;8746;49.230;9.220;2022-09-29T04:21:57;98490.19;;;6.73;98.55
17260;BME280;8746;49.230;9.220;2022-09-29T04:24:23;98490.41;;;6.68;98.65
17260;BME280;8746;49.230;9.220;2022-09-29T04:26:48;98483.88;;;6.77;98.87
17260;BME280;8746;49.230;9.220;2022-09-29T04:29:13;98494.75;;;6.50;99.15
17260;BME280;8746;49.230;9.220;2022-09-29T04:31:39;98488.22;;;6.59;99.36
17260;BME280;8746;49.230;9.220;2022-09-29T04:34:04;98482.69;;;6.65;99.33
17260;BME280;8746;49.230;9.220;2022-09-29T04:36:29;98476.75;;;6.62;99.11
17260;BME280;8746;49.230;9.220;2022-09-29T04:38:54;98484.53;;;6.63;98.60
17260;BME280;8746;49.230;9.220;2022-09-29T04:41:20;98484.16;;;6.71;98.81
17260;BME280;8746;49.230;9.220;2022-09-29T04:43:45;98482.75;;;6.64;98.37
17260;BME280;8746;49.230;9.220;2022-09-29T04:46:12;98487.09;;;6.65;98.48
17260;BME280;8746;49.230;9.220;2022-09-29T04:48:37;98479.66;;;6.55;98.48
17260;BME280;8746;49.230;9.220;2022-09-29T04:51:04;98483.19;;;6.54;98.27
17260;BME280;8746;49.230;9.220;2022-09-29T04:53:30;98474.69;;;6.49;98.58
17260;BME280;8746;49.230;9.220;2022-09-29T04:55:55;98478.53;;;6.42;98.44
17260;BME280;8746;49.230;9.220;2022-09-29T04:58:20;98476.00;;;6.40;98.62
17260;BME280;8746;49.230;9.220;2022-09-29T05:00:46;98474.56;;;6.33;98.44
17260;BME280;8746;49.230;9.220;2022-09-29T05:03:11;98481.59;;;6.33;98.67
17260;BME280;8746;49.230;9.220;2022-09-29T05:05:36;98492.47;;;6.23;98.63
17260;BME280;8746;49.230;9.220;2022-09-29T05:08:03;98483.63;;;6.07;98.56
17260;BME280;8746;49.230;9.220;2022-09-29T05:10:28;98478.41;;;6.26;98.42
17260;BME280;8746;49.230;9.220;2022-09-29T05:12:54;98493.56;;;6.19;98.99
17260;BME280;8746;49.230;9.220;2022-09-29T05:15:19;98484.13;;;6.15;99.15
17260;BME280;8746;49.230;9.220;2022-09-29T05:17:45;98485.38;;;6.06;99.10
17260;BME280;8746;49.230;9.220;2022-09-29T05:20:10;98501.88;;;6.08;99.08
17260;BME280;8746;49.230;9.220;2022-09-29T05:22:37;98498.47;;;6.06;99.15
17260;BME280;8746;49.230;9.220;2022-09-29T05:25:02;98498.63;;;6.03;98.56
17260;BME280;8746;49.230;9.220;2022-09-29T05:27:28;98496.84;;;6.04;98.89
17260;BME280;8746;49.230;9.220;2022-09-29T05:29:53;98506.53;;;6.02;99.23
17260;BME280;8746;49.230;9.220;2022-09-29T05:32:18;98509.09;;;6.03;99.17
17260;BME280;8746;49.230;9.220;2022-09-29T05:34:44;98509.81;;;6.07;98.64
17260;BME280;8746;49.230;9.220;2022-09-29T05:37:10;98509.09;;;6.03;98.43
17260;BME280;8746;49.230;9.220;2022-09-29T05:39:35;98509.16;;;6.02;98.89
17260;BME280;8746;49.230;9.220;2022-09-29T05:42:04;98514.34;;;6.03;98.88
17260;BME280;8746;49.230;9.220;2022-09-29T05:44:30;98512.75;;;5.99;99.13
17260;BME280;8746;49.230;9.220;2022-09-29T05:46:56;98522.25;;;6.02;98.88
17260;BME280;8746;49.230;9.220;2022-09-29T05:49:21;98518.72;;;6.03;99.28
17260;BME280;8746;49.230;9.220;2022-09-29T05:51:47;98519.59;;;6.03;99.51
17260;BME280;8746;49.230;9.220;2022-09-29T05:54:13;98518.66;;;6.04;99.08
17260;BME280;8746;49.230;9.220;2022-09-29T05:56:38;98523.03;;;6.04;99.32
17260;BME280;8746;49.230;9.220;2022-09-29T05:59:03;98526.69;;;6.20;98.90
17260;BME280;8746;49.230;9.220;2022-09-29T06:01:31;98528.34;;;6.21;99.09
17260;BME280;8746;49.230;9.220;2022-09-29T06:03:56;98532.69;;;6.22;99.48
17260;BME280;8746;49.230;9.220;2022-09-29T06:06:24;98527.75;;;6.35;99.21
17260;BME280;8746;49.230;9.220;2022-09-29T06:08:50;98526.13;;;6.33;99.01
17260;BME280;8746;49.230;9.220;2022-09-29T06:11:22;98526.94;;;6.33;98.66
17260;BME280;8746;49.230;9.220;2022-09-29T06:13:49;98537.88;;;6.43;98.94
17260;BME280;8746;49.230;9.220;2022-09-29T06:16:18;98528.97;;;6.47;98.92
17260;BME280;8746;49.230;9.220;2022-09-29T06:18:44;98544.31;;;6.55;98.56
17260;BME280;8746;49.230;9.220;2022-09-29T06:21:12;98537.00;;;6.62;98.70
17260;BME280;8746;49.230;9.220;2022-09-29T06:23:38;98540.69;;;6.57;98.56
17260;BME280;8746;49.230;9.220;2022-09-29T06:26:09;98539.88;;;6.57;98.84
17260;BME280;8746;49.230;9.220;2022-09-29T06:28:35;98536.25;;;6.60;98.51
17260;BME280;8746;49.230;9.220;2022-09-29T06:31:05;98546.34;;;6.48;98.46
17260;BME280;8746;49.230;9.220;2022-09-29T06:33:33;98542.94;;;6.84;98.19
17260;BME280;8746;49.230;9.220;2022-09-29T06:36:01;98549.03;;;6.85;97.70
17260;BME280;8746;49.230;9.220;2022-09-29T06:38:46;98556.56;;;6.93;97.38
17260;BME280;8746;49.230;9.220;2022-09-29T06:41:12;98559.78;;;6.98;96.98
17260;BME280;8746;49.230;9.220;2022-09-29T06:43:37;98563.50;;;6.94;96.64
17260;BME280;8746;49.230;9.220;2022-09-29T06:46:03;98564.75;;;7.04;96.52
17260;BME280;8746;49.230;9.220;2022-09-29T06:48:28;98554.97;;;7.08;96.34
17260;BME280;8746;49.230;9.220;2022-09-29T06:50:54;98556.91;;;7.21;96.65
17260;BME280;8746;49.230;9.220;2022-09-29T06:53:19;98546.72;;;7.15;96.68
17260;BME280;8746;49.230;9.220;2022-09-29T06:55:55;98544.94;;;6.79;97.44
17260;BME280;8746;49.230;9.220;2022-09-29T06:58:21;98547.91;;;6.90;97.69
17260;BME280;8746;49.230;9.220;2022-09-29T07:00:47;98554.06;;;6.89;97.68
17260;BME280;8746;49.230;9.220;2022-09-29T07:03:12;98551.03;;;7.16;97.49
17260;BME280;8746;49.230;9.220;2022-09-29T07:05:37;98554.31;;;7.39;96.72
17260;BME280;8746;49.230;9.220;2022-09-29T07:08:03;98562.28;;;7.55;95.51
17260;BME280;8746;49.230;9.220;2022-09-29T07:10:28;98559.44;;;7.60;95.16
17260;BME280;8746;49.230;9.220;2022-09-29T07:12:54;98560.34;;;7.59;94.46
17260;BME280;8746;49.230;9.220;2022-09-29T07:15:20;98554.16;;;7.25;95.08
17260;BME280;8746;49.230;9.220;2022-09-29T07:17:45;98564.50;;;7.45;96.05
17260;BME280;8746;49.230;9.220;2022-09-29T07:20:10;98570.66;;;7.62;95.75
17260;BME280;8746;49.230;9.220;2022-09-29T07:22:36;98573.94;;;7.84;95.13
17260;BME280;8746;49.230;9.220;2022-09-29T07:25:01;98574.06;;;7.99;94.83
17260;BME280;8746;49.230;9.220;2022-09-29T07:27:26;98574.81;;;8.01;93.75
17260;BME280;8746;49.230;9.220;2022-09-29T07:29:52;98575.56;;;8.21;92.79
17260;BME280;8746;49.230;9.220;2022-09-29T07:32:18;98571.94;;;8.39;92.69
17260;BME280;8746;49.230;9.220;2022-09-29T07:34:44;98573.91;;;8.36;91.73
17260;BME280;8746;49.230;9.220;2022-09-29T07:37:12;98573.47;;;8.27;91.28
17260;BME280;8746;49.230;9.220;2022-09-29T07:39:37;98569.75;;;8.65;91.28
17260;BME280;8746;49.230;9.220;2022-09-29T07:42:04;98571.28;;;8.69;90.36
17260;BME280;8746;49.230;9.220;2022-09-29T07:44:29;98564.91;;;8.57;90.65
17260;BME280;8746;49.230;9.220;2022-09-29T07:46:56;98567.47;;;8.59;91.03
17260;BME280;8746;49.230;9.220;2022-09-29T07:49:22;98577.09;;;8.58;91.11
17260;BME280;8746;49.230;9.220;2022-09-29T07:51:47;98581.34;;;8.61;90.33
17260;BME280;8746;49.230;9.220;2022-09-29T07:54:13;98579.16;;;8.85;90.78
17260;BME280;8746;49.230;9.220;2022-09-29T07:56:39;98576.88;;;8.95;90.00
17260;BME280;8746;49.230;9.220;2022-09-29T07:59:04;98577.81;;;8.94;88.04
17260;BME280;8746;49.230;9.220;2022-09-29T08:01:30;98576.72;;;8.98;88.50
17260;BME280;8746;49.230;9.220;2022-09-29T08:03:56;98581.78;;;9.01;88.37
17260;BME280;8746;49.230;9.220;2022-09-29T08:06:23;98580.19;;;9.14;88.79
17260;BME280;8746;49.230;9.220;2022-09-29T08:08:49;98580.69;;;9.21;88.00
17260;BME280;8746;49.230;9.220;2022-09-29T08:11:17;98582.47;;;9.21;87.74
17260;BME280;8746;49.230;9.220;2022-09-29T08:13:44;98580.34;;;9.27;87.97
17260;BME280;8746;49.230;9.220;2022-09-29T08:16:12;98584.38;;;9.33;87.48
17260;BME280;8746;49.230;9.220;2022-09-29T08:18:39;98584.94;;;9.24;87.90
17260;BME280;8746;49.230;9.220;2022-09-29T08:21:05;98587.81;;;9.19;87.69
17260;BME280;8746;49.230;9.220;2022-09-29T08:23:38;98589.91;;;9.28;87.21
17260;BME280;8746;49.230;9.220;2022-09-29T08:26:06;98590.69;;;9.30;87.54
17260;BME280;8746;49.230;9.220;2022-09-29T08:28:34;98591.94;;;9.39;87.35
17260;BME280;8746;49.230;9.220;2022-09-29T08:31:04;98584.59;;;9.30;87.34
17260;BME280;8746;49.230;9.220;2022-09-29T08:33:31;98597.63;;;9.48;87.67
17260;BME280;8746;49.230;9.220;2022-09-29T08:35:57;98582.34;;;9.54;87.97
17260;BME280;8746;49.230;9.220;2022-09-29T08:38:24;98590.44;;;9.35;88.14
17260;BME280;8746;49.230;9.220;2022-09-29T08:40:50;98597.63;;;9.48;87.77
17260;BME280;8746;49.230;9.220;2022-09-29T08:43:23;98591.84;;;9.57;88.24
17260;BME280;8746;49.230;9.220;2022-09-29T08:45:59;98592.50;;;9.60;88.02
17260;BME280;8746;49.230;9.220;2022-09-29T08:48:30;98589.38;;;9.84;86.98
17260;BME280;8746;49.230;9.220;2022-09-29T08:50:58;98595.88;;;9.93;86.49
17260;BME280;8746;49.230;9.220;2022-09-29T08:53:25;98589.13;;;10.03;85.08
17260;BME280;8746;49.230;9.220;2022-09-29T08:55:54;98597.47;;;9.95;84.98
17260;BME280;8746;49.230;9.220;2022-09-29T08:58:21;98600.91;;;10.26;84.55
17260;BME280;8746;49.230;9.220;2022-09-29T09:01:02;98596.03;;;10.49;84.87
17260;BME280;8746;49.230;9.220;2022-09-29T09:07:19;98603.66;;;10.83;82.56
17260;BME280;8746;49.230;9.220;2022-09-29T09:10:04;98603.19;;;10.76;81.34
17260;BME280;8746;49.230;9.220;2022-09-29T09:21:02;98600.59;;;11.03;78.77
17260;BME280;8746;49.230;9.220;2022-09-29T09:26:08;98600.91;;;11.53;76.63
17260;BME280;8746;49.230;9.220;2022-09-29T09:28:39;98597.72;;;11.76;76.78
17260;BME280;8746;49.230;9.220;2022-09-29T09:31:11;98604.41;;;11.94;75.38
17260;BME280;8746;49.230;9.220;2022-09-29T09:33:45;98597.97;;;11.98;75.05
17260;BME280;8746;49.230;9.220;2022-09-29T09:36:19;98606.25;;;12.32;75.22
17260;BME280;8746;49.230;9.220;2022-09-29T09:38:52;98600.00;;;12.59;74.48
17260;BME280;8746;49.230;9.220;2022-09-29T09:41:21;98597.53;;;12.69;71.63
17260;BME280;8746;49.230;9.220;2022-09-29T09:43:51;98591.94;;;13.11;71.60
17260;BME280;8746;49.230;9.220;2022-09-29T09:54:40;98603.50;;;12.21;71.24
17260;BME280;8746;49.230;9.220;2022-09-29T09:57:16;98600.03;;;12.96;73.29
17260;BME280;8746;49.230;9.220;2022-09-29T10:02:22;98605.47;;;13.19;71.46
17260;BME280;8746;49.230;9.220;2022-09-29T10:04:50;98602.13;;;13.28;70.17
17260;BME280;8746;49.230;9.220;2022-09-29T10:07:18;98608.81;;;11.94;72.15
17260;BME280;8746;49.230;9.220;2022-09-29T10:09:44;98612.78;;;12.27;72.18
17260;BME280;8746;49.230;9.220;2022-09-29T10:12:15;98606.94;;;12.86;72.91
17260;BME280;8746;49.230;9.220;2022-09-29T10:15:03;98597.81;;;13.27;70.45
17260;BME280;8746;49.230;9.220;2022-09-29T10:17:35;98602.06;;;13.54;68.97
17260;BME280;8746;49.230;9.220;2022-09-29T10:20:03;98601.63;;;13.23;70.64
17260;BME280;8746;49.230;9.220;2022-09-29T10:22:30;98594.84;;;13.56;68.91
17260;BME280;8746;49.230;9.220;2022-09-29T10:25:19;98601.63;;;13.60;69.37
17260;BME280;8746;49.230;9.220;2022-09-29T10:27:48;98601.31;;;14.23;67.33
17260;BME280;8746;49.230;9.220;2022-09-29T10:30:24;98603.53;;;14.75;65.34
17260;BME280;8746;49.230;9.220;2022-09-29T10:32:58;98607.97;;;14.40;65.78
17260;BME280;8746;49.230;9.220;2022-09-29T10:35:32;98610.97;;;14.24;67.38
17260;BME280;8746;49.230;9.220;2022-09-29T10:38:02;98612.56;;;13.91;67.59
17260;BME280;8746;49.230;9.220;2022-09-29T10:40:30;98609.25;;;14.12;67.87
17260;BME280;8746;49.230;9.220;2022-09-29T10:42:57;98610.00;;;14.25;64.23
17260;BME280;8746;49.230;9.220;2022-09-29T10:45:27;98606.88;;;14.43;66.50
17260;BME280;8746;49.230;9.220;2022-09-29T10:50:30;98604.97;;;14.90;63.27
17260;BME280;8746;49.230;9.220;2022-09-29T10:52:58;98600.88;;;14.98;63.08
17260;BME280;8746;49.230;9.220;2022-09-29T10:55:25;98597.50;;;14.96;63.18
17260;BME280;8746;49.230;9.220;2022-09-29T10:57:54;98599.50;;;15.59;60.98
17260;BME280;8746;49.230;9.220;2022-09-29T11:02:59;98601.69;;;15.53;57.99
17260;BME280;8746;49.230;9.220;2022-09-29T11:05:28;98601.13;;;15.82;60.17
17260;BME280;8746;49.230;9.220;2022-09-29T11:07:53;98598.16;;;15.32;59.46
17260;BME280;8746;49.230;9.220;2022-09-29T11:10:43;98597.34;;;16.06;58.25
17260;BME280;8746;49.230;9.220;2022-09-29T11:15:48;98603.13;;;15.58;58.84
17260;BME280;8746;49.230;9.220;2022-09-29T11:18:24;98606.75;;;14.33;61.00
17260;BME280;8746;49.230;9.220;2022-09-29T11:21:20;98601.81;;;14.63;62.67
17260;BME280;8746;49.230;9.220;2022-09-29T11:26:53;98597.88;;;14.80;61.71
17260;BME280;8746;49.230;9.220;2022-09-29T11:29:47;98600.25;;;14.60;61.08
17260;BME280;8746;49.230;9.220;2022-09-29T11:37:40;98606.88;;;14.54;61.58
17260;BME280;8746;49.230;9.220;2022-09-29T11:40:30;98611.00;;;14.58;61.94
17260;BME280;8746;49.230;9.220;2022-09-29T11:43:04;98616.06;;;14.62;62.07
17260;BME280;8746;49.230;9.220;2022-09-29T11:45:37;98610.63;;;14.97;60.20
17260;BME280;8746;49.230;9.220;2022-09-29T11:48:19;98608.69;;;15.11;61.58
17260;BME280;8746;49.230;9.220;2022-09-29T11:50:59;98615.25;;;14.95;62.53
17260;BME280;8746;49.230;9.220;2022-09-29T11:53:30;98615.81;;;15.10;61.92
17260;BME280;8746;49.230;9.220;2022-09-29T12:01:40;98610.50;;;15.10;61.93
17260;BME280;8746;49.230;9.220;2022-09-29T12:04:49;98610.84;;;15.17;60.36
17260;BME280;8746;49.230;9.220;2022-09-29T12:12:47;98602.31;;;15.02;61.33
17260;BME280;8746;49.230;9.220;2022-09-29T12:18:10;98601.63;;;14.77;59.04
17260;BME280;8746;49.230;9.220;2022-09-29T12:20:42;98589.66;;;14.94;59.57
17260;BME280;8746;49.230;9.220;2022-09-29T12:23:13;98597.66;;;15.27;59.10
17260;BME280;8746;49.230;9.220;2022-09-29T12:25:48;98603.66;;;14.73;58.68
17260;BME280;8746;49.230;9.220;2022-09-29T12:28:20;98600.13;;;14.62;59.49
17260;BME280;8746;49.230;9.220;2022-09-29T12:30:54;98597.25;;;14.87;60.75
17260;BME280;8746;49.230;9.220;2022-09-29T12:33:33;98596.06;;;14.92;57.80
17260;BME280;8746;49.230;9.220;2022-09-29T12:36:12;98594.84;;;14.84;60.63
17260;BME280;8746;49.230;9.220;2022-09-29T12:39:14;98599.16;;;14.63;61.36
17260;BME280;8746;49.230;9.220;2022-09-29T12:41:48;98594.97;;;14.94;58.68
17260;BME280;8746;49.230;9.220;2022-09-29T12:44:30;98593.03;;;14.85;60.04
17260;BME280;8746;49.230;9.220;2022-09-29T12:47:03;98599.69;;;14.68;61.01
17260;BME280;8746;49.230;9.220;2022-09-29T12:49:36;98602.84;;;14.73;62.00
17260;BME280;8746;49.230;9.220;2022-09-29T12:52:11;98595.34;;;14.78;60.58
17260;BME280;8746;49.230;9.220;2022-09-29T12:54:51;98594.00;;;14.84;61.90
17260;BME280;8746;49.230;9.220;2022-09-29T12:57:26;98594.88;;;14.73;61.57
17260;BME280;8746;49.230;9.220;2022-09-29T13:00:03;98595.44;;;14.99;62.39
17260;BME280;8746;49.230;9.220;2022-09-29T13:08:18;98591.19;;;15.08;59.04
17260;BME280;8746;49.230;9.220;2022-09-29T13:24:54;98601.97;;;14.95;58.43
17260;BME280;8746;49.230;9.220;2022-09-29T13:27:39;98605.34;;;15.52;56.82
17260;BME280;8746;49.230;9.220;2022-09-29T13:30:15;98607.22;;;15.18;56.82
17260;BME280;8746;49.230;9.220;2022-09-29T13:32:44;98604.59;;;15.50;57.80
17260;BME280;8746;49.230;9.220;2022-09-29T13:35:14;98608.09;;;15.51;58.13
17260;BME280;8746;49.230;9.220;2022-09-29T13:37:47;98600.63;;;15.77;56.25
17260;BME280;8746;49.230;9.220;2022-09-29T13:40:22;98603.72;;;15.61;56.42
17260;BME280;8746;49.230;9.220;2022-09-29T13:42:50;98598.72;;;14.92;57.31
17260;BME280;8746;49.230;9.220;2022-09-29T13:47:58;98607.00;;;15.53;57.18
17260;BME280;8746;49.230;9.220;2022-09-29T13:50:46;98608.38;;;15.48;56.49
17260;BME280;8746;49.230;9.220;2022-09-29T14:01:29;98616.44;;;14.80;59.15
17260;BME280;8746;49.230;9.220;2022-09-29T14:03:56;98621.28;;;14.86;57.72
17260;BME280;8746;49.230;9.220;2022-09-29T14:06:24;98619.81;;;15.04;58.47
17260;BME280;8746;49.230;9.220;2022-09-29T14:11:33;98614.31;;;15.29;56.60
17260;BME280;8746;49.230;9.220;2022-09-29T14:14:13;98618.72;;;15.18;56.40
17260;BME280;8746;49.230;9.220;2022-09-29T14:17:08;98615.97;;;14.86;57.46
17260;BME280;8746;49.230;9.220;2022-09-29T14:27:33;98627.41;;;14.52;58.45
17260;BME280;8746;49.230;9.220;2022-09-29T14:30:10;98638.03;;;14.64;59.74
17260;BME280;8746;49.230;9.220;2022-09-29T14:32:55;98636.94;;;14.55;58.68
17260;BME280;8746;49.230;9.220;2022-09-29T14:35:29;98644.44;;;14.72;57.87
17260;BME280;8746;49.230;9.220;2022-09-29T14:38:12;98646.81;;;14.64;58.22
17260;BME280;8746;49.230;9.220;2022-09-29T14:40:40;98645.84;;;14.54;56.25
17260;BME280;8746;49.230;9.220;2022-09-29T14:43:17;98650.31;;;14.53;56.17
17260;BME280;8746;49.230;9.220;2022-09-29T14:49:24;98651.09;;;14.89;58.03
17260;BME280;8746;49.230;9.220;2022-09-29T14:52:13;98660.16;;;14.76;57.71
17260;BME280;8746;49.230;9.220;2022-09-29T14:57:27;98660.06;;;14.30;58.08
17260;BME280;8746;49.230;9.220;2022-09-29T15:00:04;98667.13;;;14.18;57.49
17260;BME280;8746;49.230;9.220;2022-09-29T15:02:32;98664.75;;;14.26;56.44
17260;BME280;8746;49.230;9.220;2022-09-29T15:07:40;98663.66;;;14.29;57.09
17260;BME280;8746;49.230;9.220;2022-09-29T15:10:19;98663.38;;;14.09;56.61
17260;BME280;8746;49.230;9.220;2022-09-29T15:12:46;98657.25;;;14.20;58.61
17260;BME280;8746;49.230;9.220;2022-09-29T15:15:30;98663.22;;;14.00;58.75
17260;BME280;8746;49.230;9.220;2022-09-29T15:18:04;98664.19;;;14.10;56.18
17260;BME280;8746;49.230;9.220;2022-09-29T15:23:25;98670.19;;;14.36;56.43
17260;BME280;8746;49.230;9.220;2022-09-29T15:25:55;98668.66;;;14.56;55.63
17260;BME280;8746;49.230;9.220;2022-09-29T15:28:30;98674.25;;;14.76;54.97
17260;BME280;8746;49.230;9.220;2022-09-29T15:31:01;98665.06;;;15.26;53.00
17260;BME280;8746;49.230;9.220;2022-09-29T15:33:29;98665.94;;;16.02;52.45
17260;BME280;8746;49.230;9.220;2022-09-29T15:35:58;98670.78;;;16.82;51.22
17260;BME280;8746;49.230;9.220;2022-09-29T15:38:34;98667.06;;;17.25;50.06
17260;BME280;8746;49.230;9.220;2022-09-29T15:43:51;98679.78;;;17.12;48.99
17260;BME280;8746;49.230;9.220;2022-09-29T15:46:23;98682.38;;;16.50;49.53
17260;BME280;8746;49.230;9.220;2022-09-29T15:49:12;98694.28;;;16.25;51.76
17260;BME280;8746;49.230;9.220;2022-09-29T15:51:41;98692.28;;;16.06;51.87
17260;BME280;8746;49.230;9.220;2022-09-29T15:54:10;98698.03;;;15.90;53.11
17260;BME280;8746;49.230;9.220;2022-09-29T15:56:36;98691.63;;;15.81;52.71
17260;BME280;8746;49.230;9.220;2022-09-29T15:59:46;98699.94;;;15.10;56.42